Time;durP1;ratioP1;P1;durP2;ratioP2;P2;SDS_P1;SDS_P2;PMS_P1;PMS_P2;Temp;Humidity;BMP_temperature;BMP_pressure;BME280_temperature;BME280_humidity;BME280_pressure;Samples;Min_cycle;Max_cycle;Signal;HPM_P1;HPM_P2
2022/07/26 00:01:24;;;;;;;0.10;0.10;;;19.90;99.90;;;;;;5031943;28;20108;-66
2022/07/26 00:03:50;;;;;;;0.00;0.00;;;19.80;99.90;;;;;;5029741;28;20033;-66
2022/07/26 00:06:16;;;;;;;0.00;0.00;;;19.80;99.90;;;;;;5042104;28;20546;-66
2022/07/26 00:08:42;;;;;;;0.00;0.00;;;19.80;99.90;;;;;;5033978;28;20536;-66
2022/07/26 00:11:08;;;;;;;0.15;0.13;;;19.70;99.90;;;;;;5029466;28;20073;-66
2022/07/26 00:13:34;;;;;;;0.00;0.00;;;19.80;99.90;;;;;;5046294;28;20083;-66
2022/07/26 00:16:00;;;;;;;0.00;0.00;;;19.80;99.90;;;;;;5033230;28;20041;-66
2022/07/26 00:18:26;;;;;;;0.00;0.00;;;19.70;99.90;;;;;;5027756;28;20541;-66
2022/07/26 00:20:52;;;;;;;0.00;0.00;;;19.80;99.90;;;;;;5044841;28;20080;-66
2022/07/26 00:23:18;;;;;;;0.00;0.00;;;19.70;99.90;;;;;;5036641;28;20080;-66
2022/07/26 00:25:44;;;;;;;0.10;0.10;;;19.70;99.90;;;;;;5026724;28;20107;-66
2022/07/26 00:28:10;;;;;;;0.00;0.00;;;19.70;99.90;;;;;;5035218;28;20049;-66
2022/07/26 00:30:36;;;;;;;0.10;0.10;;;19.60;99.90;;;;;;5029229;28;20767;-66
2022/07/26 00:33:01;;;;;;;0.00;0.00;;;19.60;99.90;;;;;;5036020;28;20045;-66
2022/07/26 00:35:27;;;;;;;0.00;0.00;;;19.60;99.90;;;;;;5031159;28;20117;-66
2022/07/26 00:37:52;;;;;;;0.00;0.00;;;19.70;99.90;;;;;;5035073;28;20041;-66
2022/07/26 00:40:18;;;;;;;0.90;0.30;;;19.60;99.90;;;;;;5027073;28;20041;-66
2022/07/26 00:42:44;;;;;;;0.10;0.10;;;19.60;99.90;;;;;;5029595;28;20045;-66
2022/07/26 00:45:11;;;;;;;0.30;0.30;;;19.60;99.90;;;;;;5034467;28;20540;-66
2022/07/26 00:47:37;;;;;;;0.00;0.00;;;19.60;99.90;;;;;;5049492;28;20124;-66
2022/07/26 00:50:05;;;;;;;0.00;0.00;;;19.60;99.90;;;;;;5028922;28;20529;-66
2022/07/26 00:52:31;;;;;;;0.30;0.30;;;19.60;99.90;;;;;;5040469;28;20128;-66
2022/07/26 00:54:57;;;;;;;0.10;0.10;;;19.60;99.90;;;;;;5028012;28;20156;-66
2022/07/26 00:57:23;;;;;;;0.13;0.13;;;19.60;99.90;;;;;;5028201;28;20048;-66
2022/07/26 00:59:49;;;;;;;0.10;0.10;;;19.60;99.90;;;;;;5039105;28;20051;-67
2022/07/26 01:02:15;;;;;;;0.52;0.52;;;19.60;99.90;;;;;;5039921;28;20053;-66
2022/07/26 01:04:43;;;;;;;0.00;0.00;;;19.60;99.90;;;;;;5030558;28;20046;-66
2022/07/26 01:07:10;;;;;;;0.00;0.00;;;19.50;99.90;;;;;;5030628;28;20072;-66
2022/07/26 01:09:37;;;;;;;0.10;0.10;;;19.50;99.90;;;;;;5031485;28;20099;-66
2022/07/26 01:12:02;;;;;;;0.10;0.10;;;19.60;99.90;;;;;;5031919;28;20679;-67
2022/07/26 01:14:28;;;;;;;0.00;0.00;;;19.50;99.90;;;;;;5032967;28;20171;-66
2022/07/26 01:16:54;;;;;;;3.10;0.38;;;19.50;99.90;;;;;;5031819;28;20041;-66
2022/07/26 01:19:20;;;;;;;0.05;0.05;;;19.50;99.90;;;;;;5036665;28;20110;-66
2022/07/26 01:21:46;;;;;;;0.00;0.00;;;19.40;99.90;;;;;;5049175;28;20102;-66
2022/07/26 01:24:11;;;;;;;0.00;0.00;;;19.50;99.90;;;;;;5037386;28;20501;-66
2022/07/26 01:26:37;;;;;;;0.00;0.00;;;19.40;99.90;;;;;;5039865;28;20120;-66
2022/07/26 01:29:03;;;;;;;0.40;0.40;;;19.40;99.90;;;;;;5030095;28;20409;-66
2022/07/26 01:31:29;;;;;;;0.00;0.00;;;19.40;99.90;;;;;;5032123;28;20669;-66
2022/07/26 01:33:54;;;;;;;0.00;0.00;;;19.30;99.90;;;;;;5038807;28;20049;-66
2022/07/26 01:36:20;;;;;;;0.00;0.00;;;19.40;99.90;;;;;;5030104;28;20474;-66
2022/07/26 01:38:46;;;;;;;0.00;0.00;;;19.40;99.90;;;;;;5030740;28;20094;-66
2022/07/26 01:41:12;;;;;;;0.43;0.43;;;19.40;99.90;;;;;;5030180;28;20153;-68
2022/07/26 01:43:37;;;;;;;1.35;0.90;;;19.30;99.90;;;;;;5050318;28;20403;-67
2022/07/26 01:46:06;;;;;;;0.22;0.22;;;19.20;99.90;;;;;;5044808;28;20045;-68
2022/07/26 01:48:31;;;;;;;0.00;0.00;;;19.20;99.90;;;;;;5033076;28;20045;-68
2022/07/26 01:50:57;;;;;;;0.10;0.10;;;19.10;99.90;;;;;;5031537;28;20045;-67
2022/07/26 01:53:23;;;;;;;0.30;0.30;;;19.00;99.90;;;;;;5033349;28;20059;-67
2022/07/26 01:55:48;;;;;;;0.22;0.22;;;18.90;99.90;;;;;;5033405;28;20047;-68
2022/07/26 01:58:14;;;;;;;0.20;0.20;;;18.80;99.90;;;;;;5032570;28;20088;-67
2022/07/26 02:00:39;;;;;;;0.00;0.00;;;18.80;99.90;;;;;;5031000;28;20562;-67
2022/07/26 02:03:05;;;;;;;0.00;0.00;;;18.80;99.90;;;;;;5048791;28;20080;-67
2022/07/26 02:05:31;;;;;;;0.00;0.00;;;18.80;99.90;;;;;;5043623;28;20056;-67
2022/07/26 02:07:57;;;;;;;0.10;0.10;;;18.80;99.90;;;;;;5050625;28;20036;-67
2022/07/26 02:10:23;;;;;;;0.00;0.00;;;18.80;99.90;;;;;;5046186;28;20419;-67
2022/07/26 02:12:49;;;;;;;0.00;0.00;;;18.80;99.90;;;;;;5030276;28;20124;-67
2022/07/26 02:15:15;;;;;;;0.00;0.00;;;18.70;99.90;;;;;;5031388;28;20128;-67
2022/07/26 02:17:42;;;;;;;1.38;0.63;;;18.70;99.90;;;;;;5042148;28;20461;-67
2022/07/26 02:20:08;;;;;;;0.00;0.00;;;18.70;99.90;;;;;;5029609;28;20052;-67
2022/07/26 02:22:34;;;;;;;0.28;0.28;;;18.60;99.90;;;;;;5030015;28;20045;-67
2022/07/26 02:24:59;;;;;;;0.00;0.00;;;18.60;99.90;;;;;;5028173;28;20723;-67
2022/07/26 02:27:25;;;;;;;0.00;0.00;;;18.60;99.90;;;;;;5029961;28;20578;-67
2022/07/26 02:29:51;;;;;;;0.00;0.00;;;18.60;99.90;;;;;;5043531;28;20128;-67
2022/07/26 02:32:16;;;;;;;0.00;0.00;;;18.60;99.90;;;;;;5041129;28;20148;-67
2022/07/26 02:34:42;;;;;;;0.57;0.43;;;18.60;99.90;;;;;;5036653;28;20128;-67
2022/07/26 02:37:07;;;;;;;0.00;0.00;;;18.60;99.90;;;;;;5036874;28;20045;-67
2022/07/26 02:39:33;;;;;;;0.10;0.10;;;18.60;99.90;;;;;;5048674;28;20149;-67
2022/07/26 02:42:00;;;;;;;0.00;0.00;;;18.50;99.90;;;;;;5039204;28;20050;-68
2022/07/26 02:44:26;;;;;;;0.00;0.00;;;18.50;99.90;;;;;;5029373;28;20049;-67
2022/07/26 02:46:53;;;;;;;0.05;0.05;;;18.50;99.90;;;;;;5028087;28;20049;-67
2022/07/26 02:49:19;;;;;;;0.10;0.10;;;18.50;99.90;;;;;;5042616;28;20620;-67
2022/07/26 02:51:45;;;;;;;0.00;0.00;;;18.50;99.90;;;;;;5045058;28;20060;-67
2022/07/26 02:54:11;;;;;;;2.20;1.40;;;18.50;99.90;;;;;;5030558;28;20123;-68
2022/07/26 02:56:38;;;;;;;0.00;0.00;;;18.40;99.90;;;;;;5036999;28;20481;-67
2022/07/26 02:59:04;;;;;;;0.08;0.08;;;18.40;99.90;;;;;;5029014;28;20670;-67
2022/07/26 03:01:29;;;;;;;0.28;0.28;;;18.30;99.90;;;;;;5027771;28;20672;-67
2022/07/26 03:03:55;;;;;;;0.00;0.00;;;18.40;99.90;;;;;;5035818;28;20052;-67
2022/07/26 03:06:21;;;;;;;0.00;0.00;;;18.40;99.90;;;;;;5038589;28;20080;-67
2022/07/26 03:08:47;;;;;;;0.10;0.10;;;18.30;99.90;;;;;;5029196;28;20516;-67
2022/07/26 03:11:13;;;;;;;0.00;0.00;;;18.30;99.90;;;;;;5033984;28;20403;-68
2022/07/26 03:13:38;;;;;;;0.00;0.00;;;18.40;99.90;;;;;;5041144;28;20127;-68
2022/07/26 03:16:05;;;;;;;0.00;0.00;;;18.30;99.90;;;;;;5043041;28;20040;-68
2022/07/26 03:18:31;;;;;;;0.00;0.00;;;18.30;99.90;;;;;;5036385;28;20077;-68
2022/07/26 03:20:56;;;;;;;0.65;0.65;;;18.40;99.90;;;;;;5030078;28;20100;-68
2022/07/26 03:23:22;;;;;;;0.00;0.00;;;18.30;99.90;;;;;;5036656;28;20118;-68
2022/07/26 03:25:47;;;;;;;0.00;0.00;;;18.20;99.90;;;;;;5042357;28;20529;-68
2022/07/26 03:28:13;;;;;;;0.52;0.52;;;18.30;99.90;;;;;;5028060;28;20381;-68
2022/07/26 03:30:39;;;;;;;0.00;0.00;;;18.30;99.90;;;;;;5029832;28;20041;-68
2022/07/26 03:33:04;;;;;;;0.00;0.00;;;18.20;99.90;;;;;;5035143;28;20051;-68
2022/07/26 03:35:30;;;;;;;0.00;0.00;;;18.20;99.90;;;;;;5029004;28;20045;-68
2022/07/26 03:37:55;;;;;;;0.00;0.00;;;18.20;99.90;;;;;;5029029;28;20049;-68
2022/07/26 03:40:21;;;;;;;0.50;0.50;;;18.20;99.90;;;;;;5027066;28;20041;-68
2022/07/26 03:42:47;;;;;;;0.00;0.00;;;18.20;99.90;;;;;;5032326;28;20037;-68
2022/07/26 03:45:14;;;;;;;0.00;0.00;;;18.30;99.90;;;;;;5026574;28;20049;-68
2022/07/26 03:47:40;;;;;;;0.55;0.40;;;18.30;99.90;;;;;;5028942;28;20068;-68
2022/07/26 03:50:06;;;;;;;5.78;1.45;;;18.30;99.90;;;;;;5027015;28;20532;-68
2022/07/26 03:52:32;;;;;;;0.22;0.22;;;18.30;99.90;;;;;;5028292;28;20132;-68
2022/07/26 03:54:58;;;;;;;0.00;0.00;;;18.20;99.90;;;;;;5028044;28;20128;-68
2022/07/26 03:57:24;;;;;;;0.00;0.00;;;18.10;99.90;;;;;;5029678;28;20033;-68
2022/07/26 03:59:49;;;;;;;0.00;0.00;;;18.10;99.90;;;;;;5027523;28;20041;-68
2022/07/26 04:02:15;;;;;;;0.63;0.38;;;18.10;99.90;;;;;;5041218;28;20095;-68
2022/07/26 04:04:40;;;;;;;0.00;0.00;;;18.10;99.90;;;;;;5027891;28;20057;-68
2022/07/26 04:07:06;;;;;;;0.10;0.10;;;18.10;99.90;;;;;;5029990;28;20686;-68
2022/07/26 04:09:32;;;;;;;0.10;0.10;;;18.00;99.90;;;;;;5047617;28;20110;-68
2022/07/26 04:11:57;;;;;;;0.10;0.10;;;18.00;99.90;;;;;;5028759;28;20044;-68
2022/07/26 04:14:23;;;;;;;0.00;0.00;;;18.00;99.90;;;;;;5028970;28;20042;-68
2022/07/26 04:16:48;;;;;;;2.92;0.95;;;18.10;99.90;;;;;;5038395;28;20605;-68
2022/07/26 04:19:14;;;;;;;0.00;0.00;;;18.00;99.90;;;;;;5036233;28;20592;-68
2022/07/26 04:21:39;;;;;;;0.20;0.20;;;18.00;99.90;;;;;;5033312;28;20045;-68
2022/07/26 04:24:05;;;;;;;0.00;0.00;;;18.00;99.90;;;;;;5038224;28;20045;-68
2022/07/26 04:26:31;;;;;;;0.00;0.00;;;17.90;99.90;;;;;;5030129;28;20045;-68
2022/07/26 04:28:57;;;;;;;1.20;0.73;;;17.90;99.90;;;;;;5028514;28;20041;-68
2022/07/26 04:31:23;;;;;;;1.55;0.75;;;17.80;99.90;;;;;;5026633;28;20447;-68
2022/07/26 04:33:50;;;;;;;8.40;0.65;;;17.80;99.90;;;;;;5028292;28;20512;-68
2022/07/26 04:36:15;;;;;;;0.00;0.00;;;17.70;99.90;;;;;;5027549;28;20049;-68
2022/07/26 04:38:41;;;;;;;0.00;0.00;;;17.80;99.90;;;;;;5032933;28;20048;-68
2022/07/26 04:41:07;;;;;;;0.00;0.00;;;17.70;99.90;;;;;;5046156;28;20083;-68
2022/07/26 04:43:32;;;;;;;0.00;0.00;;;17.70;99.90;;;;;;5045912;28;20044;-68
2022/07/26 04:45:59;;;;;;;0.08;0.08;;;17.70;99.90;;;;;;5038162;28;20065;-68
2022/07/26 04:48:25;;;;;;;0.22;0.22;;;17.80;99.90;;;;;;5026283;28;20413;-68
2022/07/26 04:50:51;;;;;;;1.00;0.75;;;17.80;99.90;;;;;;5035522;28;20048;-68
2022/07/26 04:53:16;;;;;;;0.00;0.00;;;17.80;99.90;;;;;;5044611;28;20052;-68
2022/07/26 04:55:42;;;;;;;0.45;0.32;;;17.80;99.90;;;;;;5028338;28;20049;-68
2022/07/26 04:58:08;;;;;;;0.00;0.00;;;17.80;99.90;;;;;;5039983;28;20053;-68
2022/07/26 05:00:35;;;;;;;0.00;0.00;;;17.80;99.90;;;;;;5031808;28;20045;-68
2022/07/26 05:03:01;;;;;;;0.00;0.00;;;17.90;99.90;;;;;;5027417;28;20042;-69
2022/07/26 05:05:29;;;;;;;0.10;0.10;;;17.80;99.90;;;;;;5027893;28;20611;-68
2022/07/26 05:07:56;;;;;;;0.00;0.00;;;17.80;99.90;;;;;;5023765;28;20459;-68
2022/07/26 05:10:30;;;;;;;0.20;0.20;;;17.80;99.90;;;;;;5040358;28;20053;-68
2022/07/26 05:12:55;;;;;;;0.00;0.00;;;17.80;99.90;;;;;;5042639;28;20259;-68
2022/07/26 05:15:21;;;;;;;0.03;0.03;;;17.80;99.90;;;;;;5034592;28;20129;-68
2022/07/26 05:17:46;;;;;;;0.10;0.10;;;17.70;99.90;;;;;;5045964;28;20049;-68
2022/07/26 05:20:14;;;;;;;0.00;0.00;;;17.70;99.90;;;;;;5041005;28;20107;-68
2022/07/26 05:22:40;;;;;;;0.00;0.00;;;17.70;99.90;;;;;;5037001;28;20045;-68
2022/07/26 05:25:06;;;;;;;0.00;0.00;;;17.70;99.90;;;;;;5029169;28;20060;-68
2022/07/26 05:27:32;;;;;;;0.00;0.00;;;17.70;99.90;;;;;;5025057;28;20053;-68
2022/07/26 05:29:58;;;;;;;0.00;0.00;;;17.80;99.90;;;;;;5029348;28;20049;-68
2022/07/26 05:32:23;;;;;;;0.00;0.00;;;17.70;99.90;;;;;;5027096;28;20312;-68
2022/07/26 05:34:49;;;;;;;0.10;0.10;;;17.70;99.90;;;;;;5038068;28;20052;-68
2022/07/26 05:37:15;;;;;;;0.10;0.10;;;17.70;99.90;;;;;;5025889;28;20041;-69
2022/07/26 05:39:40;;;;;;;7.68;0.93;;;17.80;99.90;;;;;;5029369;28;20073;-69
2022/07/26 05:42:06;;;;;;;0.10;0.10;;;17.70;99.90;;;;;;5034102;28;20574;-68
2022/07/26 05:44:32;;;;;;;0.55;0.32;;;17.80;99.90;;;;;;5030842;28;20183;-68
2022/07/26 05:46:57;;;;;;;0.00;0.00;;;17.80;99.90;;;;;;5032502;28;20128;-68
2022/07/26 05:49:24;;;;;;;0.00;0.00;;;17.80;99.90;;;;;;5043080;28;20049;-68
2022/07/26 05:51:50;;;;;;;0.00;0.00;;;17.80;99.90;;;;;;5037223;28;20054;-68
2022/07/26 05:54:17;;;;;;;0.47;0.47;;;17.80;99.90;;;;;;5033193;28;20504;-68
2022/07/26 05:56:43;;;;;;;0.28;0.28;;;17.80;99.90;;;;;;5033341;28;20124;-69
2022/07/26 05:59:08;;;;;;;0.00;0.00;;;17.90;99.90;;;;;;5038217;28;20124;-68
2022/07/26 06:01:34;;;;;;;0.00;0.00;;;17.90;99.90;;;;;;5037718;28;20104;-68
2022/07/26 06:04:00;;;;;;;0.00;0.00;;;17.80;99.90;;;;;;5031416;28;20039;-69
2022/07/26 06:06:26;;;;;;;0.00;0.00;;;17.80;99.90;;;;;;5031149;28;20044;-69
2022/07/26 06:08:51;;;;;;;0.00;0.00;;;17.80;99.90;;;;;;5048842;28;20080;-69
2022/07/26 06:11:17;;;;;;;1.65;0.65;;;17.90;99.90;;;;;;5047703;28;20428;-69
2022/07/26 06:13:42;;;;;;;0.10;0.10;;;17.90;99.90;;;;;;5045501;28;20488;-68
2022/07/26 06:16:08;;;;;;;0.57;0.55;;;17.80;99.90;;;;;;5030598;28;20087;-69
2022/07/26 06:18:34;;;;;;;0.00;0.00;;;17.90;99.90;;;;;;5035844;28;20091;-69
2022/07/26 06:20:59;;;;;;;0.08;0.08;;;18.00;99.90;;;;;;5036259;28;20045;-68
2022/07/26 06:23:25;;;;;;;0.00;0.00;;;18.00;99.90;;;;;;5041331;28;20033;-68
2022/07/26 06:25:51;;;;;;;0.00;0.00;;;18.00;99.90;;;;;;5034049;28;20452;-68
2022/07/26 06:28:16;;;;;;;0.00;0.00;;;18.10;99.90;;;;;;5029766;28;20124;-68
2022/07/26 06:30:43;;;;;;;0.00;0.00;;;18.00;99.90;;;;;;5027933;28;20408;-68
2022/07/26 06:33:09;;;;;;;0.00;0.00;;;18.00;99.90;;;;;;5039762;28;20076;-68
2022/07/26 06:35:37;;;;;;;0.50;0.50;;;18.10;99.90;;;;;;5042565;28;20068;-68
2022/07/26 06:38:04;;;;;;;0.00;0.00;;;18.10;99.90;;;;;;5043434;28;20042;-68
2022/07/26 06:40:30;;;;;;;0.00;0.00;;;18.10;99.90;;;;;;5029157;28;20148;-69
2022/07/26 06:42:56;;;;;;;0.03;0.03;;;18.20;99.90;;;;;;5034504;28;20116;-68
2022/07/26 06:45:21;;;;;;;0.00;0.00;;;18.20;99.90;;;;;;5033819;28;20048;-68
2022/07/26 06:47:47;;;;;;;0.00;0.00;;;18.20;99.90;;;;;;5063008;28;20547;-69
2022/07/26 06:50:13;;;;;;;0.00;0.00;;;18.10;99.90;;;;;;5046774;28;20140;-68
2022/07/26 06:52:38;;;;;;;0.00;0.00;;;18.10;99.90;;;;;;5036875;28;20036;-68
2022/07/26 06:55:05;;;;;;;0.00;0.00;;;17.90;99.90;;;;;;5043581;28;20055;-70
2022/07/26 06:57:30;;;;;;;0.03;0.03;;;17.70;99.90;;;;;;5045408;28;20493;-69
2022/07/26 06:59:56;;;;;;;0.00;0.00;;;17.50;99.90;;;;;;5037289;28;20061;-70
2022/07/26 07:02:22;;;;;;;0.00;0.00;;;17.50;99.90;;;;;;5035104;28;20516;-69
2022/07/26 07:04:47;;;;;;;0.00;0.00;;;17.40;99.90;;;;;;5046238;28;20041;-69
2022/07/26 07:07:13;;;;;;;0.00;0.00;;;17.40;99.90;;;;;;5042936;28;20045;-69
2022/07/26 07:09:39;;;;;;;0.10;0.10;;;17.40;99.90;;;;;;5044098;28;20039;-70
2022/07/26 07:12:06;;;;;;;0.10;0.10;;;17.40;99.90;;;;;;5037316;28;20049;-69
2022/07/26 07:14:32;;;;;;;0.10;0.10;;;17.40;99.90;;;;;;5029175;28;20136;-69
2022/07/26 07:16:58;;;;;;;0.00;0.00;;;17.50;99.90;;;;;;5028975;28;20064;-70
2022/07/26 07:19:24;;;;;;;0.00;0.00;;;17.50;99.90;;;;;;5037869;28;20037;-69
2022/07/26 07:21:51;;;;;;;0.00;0.00;;;17.40;99.90;;;;;;5048892;28;20045;-69
2022/07/26 07:24:17;;;;;;;0.00;0.00;;;17.50;99.90;;;;;;5038713;28;20045;-69
2022/07/26 07:26:43;;;;;;;0.00;0.00;;;17.60;99.90;;;;;;5029135;28;20053;-69
2022/07/26 07:29:13;;;;;;;0.00;0.00;;;17.60;99.90;;;;;;5027598;28;20381;-69
2022/07/26 07:31:39;;;;;;;0.00;0.00;;;17.60;99.90;;;;;;5029334;28;20045;-69
2022/07/26 07:34:04;;;;;;;0.15;0.13;;;17.70;99.90;;;;;;5028612;28;20041;-69
2022/07/26 07:36:30;;;;;;;0.00;0.00;;;17.90;99.90;;;;;;5028285;28;20566;-69
2022/07/26 07:38:55;;;;;;;0.10;0.10;;;18.00;99.90;;;;;;5029158;28;20048;-69
2022/07/26 07:41:21;;;;;;;0.00;0.00;;;18.00;99.90;;;;;;5040548;28;20095;-69
2022/07/26 07:43:46;;;;;;;0.00;0.00;;;18.00;99.90;;;;;;5026485;28;20046;-69
2022/07/26 07:46:12;;;;;;;0.00;0.00;;;17.90;99.90;;;;;;5028821;28;20041;-69
2022/07/26 07:48:39;;;;;;;0.03;0.03;;;17.80;99.90;;;;;;5032581;28;20171;-69
2022/07/26 07:51:08;;;;;;;0.00;0.00;;;17.80;99.90;;;;;;5048053;28;20041;-69
2022/07/26 07:53:34;;;;;;;0.90;0.30;;;17.90;99.90;;;;;;5035001;28;20041;-69
2022/07/26 07:56:00;;;;;;;0.00;0.00;;;18.00;99.90;;;;;;5032866;28;20053;-69
2022/07/26 07:58:26;;;;;;;0.03;0.03;;;18.00;99.90;;;;;;5048569;28;20618;-69
2022/07/26 08:00:52;;;;;;;0.65;0.65;;;18.00;99.90;;;;;;5036102;28;20056;-69
2022/07/26 08:03:18;;;;;;;0.00;0.00;;;18.10;99.90;;;;;;5047839;28;20396;-69
2022/07/26 08:05:44;;;;;;;0.00;0.00;;;18.20;99.90;;;;;;5048318;28;20052;-69
2022/07/26 08:08:09;;;;;;;0.40;0.40;;;18.20;99.90;;;;;;5046773;28;20044;-69
2022/07/26 08:10:35;;;;;;;0.00;0.00;;;18.30;99.90;;;;;;5026323;28;20403;-69
2022/07/26 08:13:00;;;;;;;0.10;0.10;;;18.40;99.90;;;;;;5042849;28;20492;-69
2022/07/26 08:15:26;;;;;;;0.05;0.05;;;18.50;99.90;;;;;;5041676;28;20111;-69
2022/07/26 08:17:52;;;;;;;0.08;0.08;;;18.60;99.90;;;;;;5027846;28;20412;-69
2022/07/26 08:20:18;;;;;;;0.00;0.00;;;18.50;99.90;;;;;;5027234;28;20053;-69
2022/07/26 08:22:44;;;;;;;0.10;0.10;;;18.50;99.90;;;;;;5028638;28;20043;-69
2022/07/26 08:25:09;;;;;;;0.00;0.00;;;18.50;99.90;;;;;;5026932;28;20041;-69
2022/07/26 08:27:35;;;;;;;0.80;0.32;;;18.40;99.90;;;;;;5028053;28;20041;-70
2022/07/26 08:30:01;;;;;;;0.03;0.03;;;18.20;99.90;;;;;;5031477;28;20047;-70
2022/07/26 08:32:27;;;;;;;0.30;0.20;;;18.10;99.90;;;;;;5032831;28;20061;-69
2022/07/26 08:34:52;;;;;;;0.75;0.75;;;18.00;99.90;;;;;;5035506;28;20571;-70
2022/07/26 08:37:18;;;;;;;0.00;0.00;;;17.80;99.90;;;;;;5046720;28;20435;-70
2022/07/26 08:39:45;;;;;;;0.00;0.00;;;17.80;99.90;;;;;;5031078;28;20052;-70
2022/07/26 08:42:19;;;;;;;0.68;0.68;;;17.80;99.90;;;;;;5029320;28;20045;-70
2022/07/26 08:44:46;;;;;;;0.00;0.00;;;17.80;99.90;;;;;;5027704;28;20049;-69
2022/07/26 08:47:13;;;;;;;0.22;0.22;;;17.90;99.90;;;;;;5027064;28;20045;-70
2022/07/26 08:49:40;;;;;;;0.10;0.10;;;18.20;99.90;;;;;;5038341;28;20045;-70
2022/07/26 08:52:06;;;;;;;0.00;0.00;;;18.40;99.90;;;;;;5037436;28;20077;-69
2022/07/26 08:54:32;;;;;;;0.10;0.10;;;18.50;99.90;;;;;;5027879;28;20192;-70
2022/07/26 08:56:58;;;;;;;0.05;0.05;;;18.60;99.90;;;;;;5027343;28;20099;-70
2022/07/26 08:59:24;;;;;;;0.15;0.15;;;18.50;99.90;;;;;;5041437;28;20136;-69
2022/07/26 09:02:10;;;;;;;0.00;0.00;;;18.40;99.90;;;;;;5045839;28;20052;-70
2022/07/26 09:04:43;;;;;;;0.10;0.10;;;18.40;99.90;;;;;;5046602;28;20550;-69
2022/07/26 09:07:17;;;;;;;0.00;0.00;;;18.30;99.90;;;;;;5047119;28;20401;-69
2022/07/26 09:10:01;;;;;;;0.52;0.52;;;18.30;99.90;;;;;;5046069;28;20049;-69
2022/07/26 09:12:27;;;;;;;;;;;18.40;99.90;;;;;;5041433;28;20041;-70
2022/07/26 09:14:54;;;;;;;0.35;0.35;;;18.50;99.90;;;;;;5029018;28;20390;-70
2022/07/26 09:17:21;;;;;;;2.20;0.47;;;18.60;99.90;;;;;;5029064;28;20103;-70
2022/07/26 09:20:10;;;;;;;0.10;0.10;;;18.80;99.90;;;;;;5042096;28;20037;-70
2022/07/26 09:22:56;;;;;;;0.08;0.08;;;19.00;99.90;;;;;;5039743;28;20045;-70
2022/07/26 09:25:23;;;;;;;0.00;0.00;;;19.10;99.90;;;;;;5031606;28;20045;-70
2022/07/26 09:27:50;;;;;;;0.08;0.08;;;19.10;99.90;;;;;;5031374;28;20038;-70
2022/07/26 09:30:16;;;;;;;1.45;0.28;;;19.10;99.90;;;;;;5032897;28;20676;-70
2022/07/26 09:32:58;;;;;;;0.05;0.05;;;19.40;99.90;;;;;;5031327;28;20175;-70
2022/07/26 09:35:23;;;;;;;0.00;0.00;;;19.60;99.90;;;;;;5030521;28;20052;-70
2022/07/26 09:37:49;;;;;;;0.10;0.10;;;19.70;99.90;;;;;;5031125;28;20045;-70
2022/07/26 09:40:16;;;;;;;0.20;0.20;;;19.70;99.90;;;;;;5030497;28;20132;-70
2022/07/26 09:42:58;;;;;;;0.10;0.10;;;19.70;99.90;;;;;;5031648;28;20500;-70
2022/07/26 09:45:25;;;;;;;0.00;0.00;;;19.70;99.90;;;;;;5031316;28;20037;-70
2022/07/26 09:47:51;;;;;;;0.00;0.00;;;19.60;99.90;;;;;;5031389;28;20508;-70
2022/07/26 09:50:29;;;;;;;0.00;0.00;;;19.70;99.90;;;;;;5048066;28;20041;-70
2022/07/26 09:53:06;;;;;;;1.40;0.95;;;19.80;99.90;;;;;;5050330;28;20045;-70
2022/07/26 09:55:33;;;;;;;0.00;0.00;;;20.00;99.90;;;;;;5030244;28;20049;-70
2022/07/26 09:58:02;;;;;;;0.00;0.00;;;20.00;99.90;;;;;;5030985;28;20056;-70
2022/07/26 10:00:29;;;;;;;0.10;0.10;;;20.10;99.90;;;;;;5033905;28;20115;-70
2022/07/26 10:02:54;;;;;;;0.00;0.00;;;20.00;99.90;;;;;;5032403;28;20500;-70
2022/07/26 10:05:20;;;;;;;0.00;0.00;;;19.90;99.90;;;;;;5030690;28;20084;-70
2022/07/26 10:07:48;;;;;;;0.00;0.00;;;20.00;99.90;;;;;;5030186;28;20045;-70
2022/07/26 10:10:25;;;;;;;0.00;0.00;;;20.00;99.90;;;;;;5030053;28;20175;-70
2022/07/26 10:12:51;;;;;;;0.05;0.05;;;20.10;99.90;;;;;;5030188;28;20481;-70
2022/07/26 10:15:37;;;;;;;0.20;0.20;;;20.40;99.90;;;;;;5046164;28;20051;-70
2022/07/26 10:18:30;;;;;;;0.00;0.00;;;20.20;99.90;;;;;;5031994;28;20056;-71
2022/07/26 10:20:55;;;;;;;0.32;0.32;;;20.50;99.90;;;;;;5045640;28;20412;-70
2022/07/26 10:23:40;;;;;;;1.45;0.40;;;21.10;99.90;;;;;;5030444;28;20037;-71
2022/07/26 10:26:09;;;;;;;0.00;0.00;;;21.00;99.90;;;;;;5045771;28;20113;-70
2022/07/26 10:28:36;;;;;;;0.00;0.00;;;20.60;99.90;;;;;;5047622;28;20041;-71
2022/07/26 10:31:22;;;;;;;0.00;0.00;;;20.70;99.90;;;;;;5028287;28;20564;-71
2022/07/26 10:33:49;;;;;;;0.00;0.00;;;20.90;99.90;;;;;;5045115;28;21748;-71
2022/07/26 10:36:23;;;;;;;0.00;0.00;;;20.70;99.90;;;;;;5030189;28;20041;-71
2022/07/26 10:39:09;;;;;;;0.00;0.00;;;20.80;99.90;;;;;;5029979;28;20045;-71
2022/07/26 10:41:36;;;;;;;0.00;0.00;;;20.70;99.90;;;;;;5034638;28;20041;-71
2022/07/26 10:44:17;;;;;;;0.00;0.00;;;20.80;99.90;;;;;;5040233;28;20069;-71
2022/07/26 10:47:10;;;;;;;0.08;0.08;;;21.00;99.90;;;;;;5029381;28;20136;-70
2022/07/26 10:49:38;;;;;;;;;;;21.20;99.90;;;;;;5043164;28;20037;-69
2022/07/26 10:52:19;;;;;;;0.35;0.10;;;20.80;99.90;;;;;;5046854;28;19976;-69
2022/07/26 10:55:02;;;;;;;0.00;0.00;;;20.90;99.90;;;;;;5049126;28;20037;-69
2022/07/26 10:57:39;;;;;;;0.00;0.00;;;20.90;99.90;;;;;;5048501;28;20049;-69
2022/07/26 11:00:16;;;;;;;0.00;0.00;;;20.60;99.90;;;;;;5031819;28;20057;-69
2022/07/26 11:02:42;;;;;;;0.95;0.95;;;20.60;99.90;;;;;;5045829;28;20051;-69
2022/07/26 11:05:16;;;;;;;0.73;0.73;;;20.50;99.90;;;;;;5043976;28;20049;-69
2022/07/26 11:07:53;;;;;;;0.00;0.00;;;20.60;99.90;;;;;;5046198;28;20037;-69
2022/07/26 11:10:23;;;;;;;0.85;0.70;;;20.80;99.90;;;;;;5029389;28;20508;-69
2022/07/26 11:12:58;;;;;;;0.00;0.00;;;21.00;99.90;;;;;;5029666;28;20048;-69
2022/07/26 11:15:23;;;;;;;0.00;0.00;;;20.90;99.90;;;;;;5030055;28;20052;-69
2022/07/26 11:17:49;;;;;;;0.00;0.00;;;20.80;99.90;;;;;;5044128;28;20049;-69
2022/07/26 11:20:24;;;;;;;0.35;0.30;;;20.80;99.90;;;;;;5047492;28;20091;-69
2022/07/26 11:22:49;;;;;;;2.63;1.65;;;20.80;99.90;;;;;;5029940;28;20056;-69
2022/07/26 11:25:20;;;;;;;0.52;0.52;;;20.60;99.90;;;;;;5028056;28;20397;-69
2022/07/26 11:28:04;;;;;;;0.00;0.00;;;20.60;99.90;;;;;;5033749;28;20045;-70
2022/07/26 11:30:30;;;;;;;1.35;0.95;;;20.80;99.90;;;;;;5045107;28;20053;-69
2022/07/26 11:32:59;;;;;;;0.00;0.00;;;21.30;99.90;;;;;;5040189;28;20481;-68
2022/07/26 11:35:26;;;;;;;0.08;0.08;;;21.00;99.90;;;;;;5028518;28;20046;-68
2022/07/26 11:37:56;;;;;;;0.00;0.00;;;20.90;99.90;;;;;;5045578;28;20500;-69
2022/07/26 11:40:44;;;;;;;0.00;0.00;;;21.20;99.90;;;;;;5031155;28;20163;-69
2022/07/26 11:43:11;;;;;;;0.28;0.28;;;21.50;99.90;;;;;;5045689;28;20041;-69
2022/07/26 11:45:37;;;;;;;0.00;0.00;;;21.80;99.90;;;;;;5048845;28;20045;-69
2022/07/26 11:48:04;;;;;;;0.00;0.00;;;21.90;99.90;;;;;;5047224;28;20055;-69
2022/07/26 11:50:29;;;;;;;0.00;0.00;;;21.70;99.90;;;;;;5031149;28;20389;-69
2022/07/26 11:52:55;;;;;;;0.00;0.00;;;21.20;99.90;;;;;;5028949;28;20045;-69
2022/07/26 11:55:27;;;;;;;0.00;0.00;;;21.50;99.90;;;;;;5040159;28;20072;-69
2022/07/26 11:57:54;;;;;;;11.80;0.57;;;21.30;99.90;;;;;;5046980;28;20053;-69
2022/07/26 12:00:22;;;;;;;0.00;0.00;;;21.30;99.90;;;;;;5035204;28;20049;-68
2022/07/26 12:02:47;;;;;;;0.10;0.10;;;21.40;99.90;;;;;;5031171;28;20404;-69
2022/07/26 12:05:16;;;;;;;0.00;0.00;;;21.80;99.90;;;;;;5028823;28;20034;-69
2022/07/26 12:08:03;;;;;;;0.00;0.00;;;22.30;99.90;;;;;;5030140;28;20404;-69
2022/07/26 12:10:29;;;;;;;0.00;0.00;;;22.80;99.90;;;;;;5031740;28;20067;-69
2022/07/26 12:13:12;;;;;;;0.00;0.00;;;23.10;99.90;;;;;;5027981;28;20045;-69
2022/07/26 12:15:49;;;;;;;0.00;0.00;;;23.40;99.90;;;;;;5037316;28;20037;-69
2022/07/26 12:18:26;;;;;;;0.65;0.38;;;23.60;99.90;;;;;;5042035;28;20037;-69
2022/07/26 12:20:56;;;;;;;0.00;0.00;;;23.20;99.90;;;;;;5032761;28;20083;-69
2022/07/26 12:23:22;;;;;;;0.00;0.00;;;23.50;99.60;;;;;;5027003;28;20100;-70
2022/07/26 12:25:48;;;;;;;0.25;0.25;;;23.20;99.60;;;;;;5041922;28;20096;-69
2022/07/26 12:28:13;;;;;;;0.15;0.15;;;23.40;99.90;;;;;;5033735;28;20103;-69
2022/07/26 12:30:39;;;;;;;0.00;0.00;;;23.00;99.20;;;;;;5039212;28;20095;-69
2022/07/26 12:33:04;;;;;;;0.00;0.00;;;22.60;99.40;;;;;;5046946;28;20041;-69
2022/07/26 12:35:34;;;;;;;0.00;0.00;;;22.20;99.40;;;;;;5048017;28;20044;-68
2022/07/26 12:38:00;;;;;;;0.00;0.00;;;21.90;98.60;;;;;;5047176;28;20056;-69
2022/07/26 12:40:38;;;;;;;0.00;0.00;;;21.80;99.30;;;;;;5028858;28;20068;-69
2022/07/26 12:43:04;;;;;;;0.20;0.20;;;21.80;99.90;;;;;;5059977;28;20098;-69
2022/07/26 12:45:32;;;;;;;0.00;0.00;;;21.70;99.50;;;;;;5036369;28;20128;-69
2022/07/26 12:48:00;;;;;;;0.00;0.00;;;21.40;98.80;;;;;;5028194;28;20037;-69
2022/07/26 12:50:27;;;;;;;0.00;0.00;;;21.40;99.90;;;;;;5027762;28;20057;-69